createdAt,value
2023-01-29T00:00:22.415Z,73.36
2023-01-29T00:02:49.334Z,73.83
2023-01-29T00:05:27.336Z,73.26
2023-01-29T00:07:56.171Z,73.37
2023-01-29T00:10:24.143Z,73.34
2023-01-29T00:12:51.719Z,74.21
2023-01-29T00:15:18.712Z,74.24
2023-01-29T00:17:45.341Z,75.50
2023-01-29T00:20:12.261Z,75.28
2023-01-29T00:22:38.841Z,75.20
2023-01-29T00:25:05.859Z,74.75
2023-01-29T00:27:32.461Z,74.79
2023-01-29T00:30:16.537Z,74.98
2023-01-29T00:32:43.645Z,74.89
2023-01-29T00:35:10.453Z,74.09
2023-01-29T00:37:37.360Z,74.44
2023-01-29T00:40:05.226Z,75.09
2023-01-29T00:42:50.754Z,75.52
2023-01-29T00:45:17.474Z,74.96
2023-01-29T00:47:45.481Z,74.73
2023-01-29T00:50:13.262Z,75.07
2023-01-29T00:52:43.055Z,74.92
2023-01-29T00:55:10.994Z,74.42
2023-01-29T00:57:38.740Z,73.41
2023-01-29T01:00:08.186Z,73.55
2023-01-29T01:02:54.353Z,73.70
2023-01-29T01:05:21.075Z,74.05
2023-01-29T01:07:50.655Z,76.44
2023-01-29T01:10:24.241Z,75.83
2023-01-29T01:13:03.617Z,75.96
2023-01-29T01:15:40.503Z,74.83
2023-01-29T01:18:07.466Z,75.02
2023-01-29T01:20:35.751Z,74.96
2023-01-29T01:23:03.402Z,74.78
2023-01-29T01:25:30.076Z,74.28
2023-01-29T01:30:27.261Z,74.27
2023-01-29T01:32:54.846Z,74.30
2023-01-29T01:35:21.427Z,73.64
2023-01-29T01:37:48.877Z,74.41
2023-01-29T01:40:19.071Z,73.93
2023-01-29T01:42:51.142Z,74.27
2023-01-29T01:45:35.882Z,73.92
2023-01-29T01:48:08.296Z,74.56
2023-01-29T01:50:45.256Z,75.28
2023-01-29T01:53:26.213Z,75.70
2023-01-29T01:56:01.362Z,75.07
2023-01-29T01:58:33.347Z,74.60
2023-01-29T02:01:01.210Z,74.77
2023-01-29T02:03:48.639Z,74.43
2023-01-29T02:06:34.233Z,73.95
2023-01-29T02:09:35.439Z,74.17
2023-01-29T02:12:07.575Z,74.01
2023-01-29T02:14:38.923Z,73.59
2023-01-29T02:17:13.548Z,73.95
2023-01-29T02:19:54.942Z,73.17
2023-01-29T02:22:42.089Z,74.63
2023-01-29T02:25:50.411Z,74.69
2023-01-29T02:28:39.529Z,74.39
2023-01-29T02:31:09.861Z,74.03
2023-01-29T02:34:00.787Z,74.32
2023-01-29T02:37:06.131Z,76.26
2023-01-29T02:39:38.018Z,77.16
2023-01-29T02:42:11.784Z,76.23
2023-01-29T02:44:48.803Z,75.98
2023-01-29T02:47:22.214Z,74.84
2023-01-29T02:50:03.866Z,75.00
2023-01-29T02:52:50.837Z,74.46
2023-01-29T02:55:23.469Z,73.91
2023-01-29T02:57:59.581Z,74.57
2023-01-29T03:00:33.567Z,74.27
2023-01-29T03:03:12.365Z,73.74
2023-01-29T03:06:06.460Z,74.49
2023-01-29T03:08:45.753Z,75.14
2023-01-29T03:11:15.339Z,75.90
2023-01-29T03:14:00.290Z,77.11
2023-01-29T03:16:35.486Z,75.96
2023-01-29T03:19:08.625Z,75.87
2023-01-29T03:22:01.247Z,75.83
2023-01-29T03:25:16.941Z,75.74
2023-01-29T03:28:25.713Z,74.78
2023-01-29T03:31:14.371Z,75.29
2023-01-29T03:33:57.627Z,75.63
2023-01-29T03:36:38.190Z,74.91
2023-01-29T03:39:11.448Z,75.41
2023-01-29T03:41:55.988Z,75.27
2023-01-29T03:44:34.278Z,74.96
2023-01-29T03:47:22.728Z,74.93
2023-01-29T03:50:08.317Z,75.94
2023-01-29T03:52:46.948Z,74.76
2023-01-29T03:55:26.145Z,74.36
2023-01-29T03:58:20.855Z,75.11
2023-01-29T04:01:02.195Z,75.06
2023-01-29T04:03:35.624Z,75.29
2023-01-29T04:06:13.140Z,74.94
2023-01-29T04:08:55.696Z,75.17
2023-01-29T04:11:23.348Z,74.60
2023-01-29T04:13:51.040Z,74.33
2023-01-29T04:16:25.209Z,74.86
2023-01-29T04:19:21.441Z,74.41
2023-01-29T04:21:55.528Z,73.19
2023-01-29T04:24:22.193Z,74.40
2023-01-29T04:27:11.549Z,74.07
2023-01-29T04:30:01.001Z,73.62
2023-01-29T04:32:51.976Z,74.45
2023-01-29T04:35:31.413Z,78.39
2023-01-29T04:38:06.274Z,80.23
2023-01-29T04:40:48.375Z,80.77
2023-01-29T04:43:30.466Z,81.10
2023-01-29T04:46:06.281Z,80.05
2023-01-29T04:49:05.327Z,78.23
2023-01-29T04:51:58.385Z,77.93
2023-01-29T04:54:34.266Z,76.83
2023-01-29T04:57:16.039Z,75.14
2023-01-29T04:59:48.447Z,74.95
2023-01-29T05:02:15.105Z,74.67
2023-01-29T05:04:45.211Z,75.18
2023-01-29T05:07:14.034Z,75.00
2023-01-29T05:09:43.706Z,74.48
2023-01-29T05:12:13.040Z,74.04
2023-01-29T05:14:43.458Z,74.27
2023-01-29T05:17:17.590Z,74.60
2023-01-29T05:19:44.835Z,73.66
2023-01-29T05:22:15.298Z,73.24
2023-01-29T05:24:42.112Z,74.19
2023-01-29T05:27:37.162Z,73.57
2023-01-29T05:30:04.566Z,73.66
2023-01-29T05:32:31.192Z,73.03
2023-01-29T05:34:57.811Z,73.86
2023-01-29T05:37:24.445Z,73.44
2023-01-29T05:39:51.095Z,73.75
2023-01-29T05:42:17.660Z,73.70
2023-01-29T05:44:44.278Z,75.86
2023-01-29T05:47:10.899Z,76.80
2023-01-29T05:49:38.808Z,77.77
2023-01-29T05:52:05.572Z,78.91
2023-01-29T05:54:32.215Z,78.23
2023-01-29T05:56:58.846Z,79.41
2023-01-29T05:59:25.614Z,78.56
2023-01-29T06:01:52.226Z,77.87
2023-01-29T06:04:18.918Z,78.70
2023-01-29T06:06:45.490Z,76.98
2023-01-29T06:09:12.142Z,75.83
2023-01-29T06:11:38.756Z,76.14
2023-01-29T06:14:05.417Z,75.50
2023-01-29T06:16:32.181Z,75.17
2023-01-29T06:18:58.911Z,74.02
2023-01-29T06:21:25.549Z,75.39
2023-01-29T06:23:53.801Z,78.37
2023-01-29T06:26:20.930Z,79.73
2023-01-29T06:28:51.083Z,80.22
2023-01-29T06:31:37.921Z,79.09
2023-01-29T06:34:05.669Z,78.03
2023-01-29T06:36:32.335Z,76.85
2023-01-29T06:38:59.071Z,75.76
2023-01-29T06:41:25.955Z,76.50
2023-01-29T06:43:53.083Z,75.43
2023-01-29T06:46:20.285Z,75.67
2023-01-29T06:48:47.012Z,76.66
2023-01-29T06:51:13.635Z,76.23
2023-01-29T06:53:40.742Z,75.08
2023-01-29T06:56:09.136Z,75.53
2023-01-29T06:58:38.811Z,75.24
2023-01-29T07:01:08.199Z,75.11
2023-01-29T07:03:35.092Z,76.90
2023-01-29T07:06:02.291Z,75.95
2023-01-29T07:08:29.000Z,75.12
2023-01-29T07:11:00.522Z,75.77
2023-01-29T07:13:27.642Z,75.12
2023-01-29T07:15:54.281Z,74.80
2023-01-29T07:18:21.059Z,75.03
2023-01-29T07:20:47.697Z,74.34
2023-01-29T07:23:14.884Z,74.02
2023-01-29T07:25:41.959Z,74.70
2023-01-29T07:28:09.048Z,74.25
2023-01-29T07:30:36.138Z,72.96
2023-01-29T07:33:07.612Z,74.08
2023-01-29T07:35:39.348Z,74.19
2023-01-29T07:38:10.146Z,75.76
2023-01-29T07:40:37.162Z,76.16
2023-01-29T07:43:06.373Z,75.34
2023-01-29T07:45:35.617Z,75.64
2023-01-29T07:48:04.254Z,75.88
2023-01-29T07:50:33.491Z,76.49
2023-01-29T07:53:00.866Z,75.51
2023-01-29T07:55:27.567Z,76.83
2023-01-29T07:57:58.919Z,77.90
2023-01-29T08:00:26.183Z,75.93
2023-01-29T08:02:53.143Z,75.79
2023-01-29T08:05:20.116Z,75.07
2023-01-29T08:07:51.569Z,75.91
2023-01-29T08:10:28.057Z,74.56
2023-01-29T08:12:59.345Z,75.62
2023-01-29T08:15:26.306Z,77.81
2023-01-29T08:20:39.907Z,76.57
2023-01-29T08:23:14.118Z,76.71
2023-01-29T08:25:41.257Z,75.97
2023-01-29T08:28:08.011Z,75.11
2023-01-29T08:30:35.306Z,76.00
2023-01-29T08:33:04.104Z,75.79
2023-01-29T08:35:31.098Z,75.51
2023-01-29T08:38:03.422Z,75.03
2023-01-29T08:40:33.356Z,75.17
2023-01-29T08:43:06.999Z,76.17
2023-01-29T08:45:37.831Z,75.51
2023-01-29T08:48:04.801Z,75.02
2023-01-29T08:50:32.396Z,75.40
2023-01-29T08:52:59.741Z,74.48
2023-01-29T08:55:27.198Z,75.22
2023-01-29T08:57:54.060Z,75.69
2023-01-29T09:00:21.139Z,77.40
2023-01-29T09:02:47.812Z,77.25
2023-01-29T09:05:15.386Z,76.66
2023-01-29T09:07:42.235Z,75.76
2023-01-29T09:10:09.423Z,75.51
2023-01-29T09:12:36.119Z,75.55
2023-01-29T09:15:02.866Z,75.18
2023-01-29T09:17:29.664Z,74.07
2023-01-29T09:19:57.565Z,75.19
2023-01-29T09:22:24.233Z,77.51
2023-01-29T09:24:50.872Z,77.30
2023-01-29T09:27:17.447Z,77.00
2023-01-29T09:29:44.170Z,77.24
2023-01-29T09:32:10.802Z,76.98
2023-01-29T09:34:37.399Z,78.12
2023-01-29T09:37:04.023Z,77.21
2023-01-29T09:39:30.681Z,76.98
2023-01-29T09:42:11.383Z,76.89
2023-01-29T09:44:40.826Z,76.61
2023-01-29T09:47:13.243Z,76.98
2023-01-29T09:49:45.177Z,77.13
2023-01-29T09:52:19.474Z,78.65
2023-01-29T09:55:06.977Z,78.29
2023-01-29T09:57:44.723Z,77.88
2023-01-29T10:00:28.269Z,77.00
2023-01-29T10:03:42.648Z,76.33
2023-01-29T10:06:57.175Z,76.44
2023-01-29T10:09:48.803Z,76.86
2023-01-29T10:12:29.564Z,78.16
2023-01-29T10:15:14.255Z,78.48
2023-01-29T10:17:41.052Z,77.84
2023-01-29T10:20:10.481Z,77.66
2023-01-29T10:22:45.835Z,76.97
2023-01-29T10:25:21.455Z,76.87
2023-01-29T10:27:53.925Z,75.98
2023-01-29T10:30:32.171Z,76.60
2023-01-29T10:33:02.904Z,76.89
2023-01-29T10:35:38.918Z,77.01
2023-01-29T10:38:21.326Z,76.75
2023-01-29T10:41:05.739Z,77.77
2023-01-29T10:43:50.610Z,77.33
2023-01-29T10:46:35.574Z,77.11
2023-01-29T10:49:28.725Z,77.08
2023-01-29T10:52:04.637Z,77.50
2023-01-29T10:55:04.138Z,76.97
2023-01-29T10:58:03.227Z,76.45
2023-01-29T11:00:40.577Z,76.35
2023-01-29T11:03:27.891Z,76.78
2023-01-29T11:06:19.985Z,77.02
2023-01-29T11:08:55.332Z,77.83
2023-01-29T11:11:31.420Z,77.72
2023-01-29T11:14:07.132Z,77.91
2023-01-29T11:16:42.770Z,78.06
2023-01-29T11:19:10.524Z,78.29
2023-01-29T11:22:21.790Z,78.00
2023-01-29T11:25:10.461Z,78.01
2023-01-29T11:27:52.238Z,77.42
2023-01-29T11:30:35.668Z,77.37
2023-01-29T11:33:08.754Z,77.09
2023-01-29T11:35:36.642Z,77.18
2023-01-29T11:38:14.225Z,77.78
2023-01-29T11:40:41.723Z,77.20
2023-01-29T11:43:32.243Z,77.02
2023-01-29T11:46:03.643Z,77.50
2023-01-29T11:48:39.619Z,77.68
2023-01-29T11:51:07.051Z,77.48
2023-01-29T11:53:41.026Z,77.66
2023-01-29T11:56:44.670Z,77.47
2023-01-29T11:59:40.128Z,77.60
2023-01-29T12:02:31.519Z,77.81
2023-01-29T12:05:16.440Z,77.35
2023-01-29T12:07:45.622Z,77.47
2023-01-29T12:10:40.857Z,77.37
2023-01-29T12:13:10.700Z,77.49
2023-01-29T12:15:38.996Z,77.30
2023-01-29T12:18:13.427Z,77.10
2023-01-29T12:21:02.127Z,77.94
2023-01-29T12:23:47.217Z,77.57
2023-01-29T12:26:29.847Z,78.23
2023-01-29T12:29:21.204Z,78.22
2023-01-29T12:32:00.005Z,77.59
2023-01-29T12:34:35.922Z,77.95
2023-01-29T12:37:37.216Z,77.94
2023-01-29T12:40:12.425Z,78.14
2023-01-29T12:42:43.403Z,77.77
2023-01-29T12:45:17.458Z,77.97
2023-01-29T12:47:49.109Z,77.41
2023-01-29T12:50:27.933Z,78.01
2023-01-29T12:53:03.306Z,77.74
2023-01-29T12:55:40.168Z,77.33
2023-01-29T12:58:16.732Z,77.27
2023-01-29T13:00:46.319Z,76.66
2023-01-29T13:03:21.338Z,76.59
2023-01-29T13:05:53.519Z,76.73
2023-01-29T13:08:36.247Z,76.42
2023-01-29T13:11:08.570Z,75.64
2023-01-29T13:13:54.042Z,75.67
2023-01-29T13:16:27.954Z,75.82
2023-01-29T13:19:01.861Z,76.03
2023-01-29T13:21:38.995Z,77.01
2023-01-29T13:24:13.120Z,76.71
2023-01-29T13:26:40.945Z,76.92
2023-01-29T13:29:19.981Z,76.48
2023-01-29T13:31:49.661Z,76.56
2023-01-29T13:34:22.913Z,77.24
2023-01-29T13:36:56.299Z,76.78
2023-01-29T13:39:34.280Z,77.28
2023-01-29T13:42:03.435Z,76.45
2023-01-29T13:44:34.910Z,77.07
2023-01-29T13:47:05.258Z,77.71
2023-01-29T13:49:42.570Z,78.20
2023-01-29T13:52:39.878Z,77.55
2023-01-29T13:55:08.256Z,77.98
2023-01-29T13:57:44.027Z,77.73
2023-01-29T14:00:22.718Z,77.62
2023-01-29T14:02:58.280Z,78.00
2023-01-29T14:05:30.924Z,77.79
2023-01-29T14:08:38.892Z,77.40
2023-01-29T14:11:33.653Z,77.50
2023-01-29T14:14:00.584Z,77.72
2023-01-29T14:16:35.691Z,77.71
2023-01-29T14:19:05.783Z,77.13
2023-01-29T14:21:34.233Z,78.28
2023-01-29T14:24:10.048Z,77.27
2023-01-29T14:26:43.710Z,76.97
2023-01-29T14:29:18.807Z,77.44
2023-01-29T14:31:59.144Z,77.36
2023-01-29T14:34:32.864Z,77.26
2023-01-29T14:37:19.045Z,77.98
2023-01-29T14:39:52.196Z,78.05
2023-01-29T14:42:24.700Z,78.45
2023-01-29T14:44:54.080Z,78.84
2023-01-29T14:47:43.119Z,79.06
2023-01-29T14:50:18.715Z,79.29
2023-01-29T14:52:49.184Z,79.49
2023-01-29T14:55:27.466Z,79.72
2023-01-29T14:58:00.050Z,79.77
2023-01-29T15:00:30.257Z,79.88
2023-01-29T15:03:02.074Z,80.05
2023-01-29T15:05:37.659Z,79.74
2023-01-29T15:08:18.218Z,79.73
2023-01-29T15:11:16.488Z,79.36
2023-01-29T15:13:53.749Z,79.24
2023-01-29T15:16:25.878Z,79.33
2023-01-29T15:18:56.652Z,79.12
2023-01-29T15:21:23.417Z,80.09
2023-01-29T15:24:05.448Z,79.29
2023-01-29T15:26:33.245Z,79.52
2023-01-29T15:29:04.550Z,78.69
2023-01-29T15:31:32.382Z,78.53
2023-01-29T15:34:04.958Z,79.27
2023-01-29T15:36:32.423Z,78.85
2023-01-29T15:39:24.667Z,78.15
2023-01-29T15:42:10.562Z,78.62
2023-01-29T15:44:44.937Z,78.58
2023-01-29T15:47:12.582Z,78.78
2023-01-29T15:49:41.223Z,78.94
2023-01-29T15:52:20.775Z,78.67
2023-01-29T15:54:47.957Z,78.87
2023-01-29T15:57:28.200Z,78.77
2023-01-29T15:59:57.751Z,78.39
2023-01-29T16:02:41.684Z,78.37
2023-01-29T16:05:18.413Z,79.24
2023-01-29T16:07:45.788Z,79.08
2023-01-29T16:10:19.908Z,79.10
2023-01-29T16:12:51.421Z,78.15
2023-01-29T16:15:24.158Z,78.94
2023-01-29T16:17:51.967Z,78.50
2023-01-29T16:20:31.706Z,78.08
2023-01-29T16:22:59.219Z,77.75
2023-01-29T16:25:26.460Z,78.44
2023-01-29T16:27:53.293Z,78.91
2023-01-29T16:30:20.022Z,78.96
2023-01-29T16:32:46.722Z,79.42
2023-01-29T16:35:17.511Z,79.99
2023-01-29T16:37:48.964Z,79.88
2023-01-29T16:40:34.713Z,80.28
2023-01-29T16:43:19.876Z,80.89
2023-01-29T16:46:34.913Z,80.74
2023-01-29T16:49:02.165Z,80.86
2023-01-29T16:51:31.399Z,81.06
2023-01-29T16:54:10.848Z,81.52
2023-01-29T16:56:39.448Z,80.86
2023-01-29T16:59:06.911Z,80.37
2023-01-29T17:01:35.669Z,80.67
2023-01-29T17:04:10.275Z,81.32
2023-01-29T17:06:38.029Z,81.22
2023-01-29T17:09:05.939Z,81.26
2023-01-29T17:11:37.519Z,80.74
2023-01-29T17:14:07.579Z,80.90
2023-01-29T17:16:50.456Z,81.13
2023-01-29T17:19:20.783Z,80.56
2023-01-29T17:21:48.030Z,80.30
2023-01-29T17:24:14.757Z,79.84
2023-01-29T17:26:41.803Z,80.35
2023-01-29T17:29:26.394Z,79.46
2023-01-29T17:31:53.271Z,79.71
2023-01-29T17:34:19.958Z,79.20
2023-01-29T17:36:46.531Z,79.10
2023-01-29T17:39:21.604Z,78.71
2023-01-29T17:41:54.727Z,78.34
2023-01-29T17:44:22.152Z,77.60
2023-01-29T17:46:49.443Z,78.17
2023-01-29T17:49:29.448Z,78.44
2023-01-29T17:51:57.046Z,78.71
2023-01-29T17:54:25.571Z,78.66
2023-01-29T17:56:53.019Z,78.42
2023-01-29T17:59:25.094Z,79.29
2023-01-29T18:01:52.060Z,79.26
2023-01-29T18:04:18.933Z,78.67
2023-01-29T18:06:48.867Z,79.00
2023-01-29T18:09:16.985Z,78.69
2023-01-29T18:11:43.746Z,78.99
2023-01-29T18:14:14.520Z,79.05
2023-01-29T18:16:42.991Z,79.08
2023-01-29T18:19:15.328Z,79.48
2023-01-29T18:21:41.985Z,79.34
2023-01-29T18:24:09.088Z,80.31
2023-01-29T18:26:36.143Z,79.37
2023-01-29T18:29:04.037Z,80.32
2023-01-29T18:31:31.064Z,80.64
2023-01-29T18:34:00.958Z,80.11
2023-01-29T18:36:27.787Z,80.03
2023-01-29T18:38:56.814Z,79.86
2023-01-29T18:41:23.637Z,80.29
2023-01-29T18:43:52.625Z,80.78
2023-01-29T18:46:21.155Z,80.42
2023-01-29T18:48:47.939Z,81.45
2023-01-29T18:51:14.618Z,81.08
2023-01-29T18:53:41.310Z,81.59
2023-01-29T18:56:08.371Z,81.36
2023-01-29T18:58:36.588Z,82.02
2023-01-29T19:01:10.147Z,82.26
2023-01-29T19:03:38.641Z,82.18
2023-01-29T19:06:07.775Z,82.25
2023-01-29T19:08:34.771Z,82.31
2023-01-29T19:11:08.001Z,81.87
2023-01-29T19:13:36.431Z,81.97
2023-01-29T19:16:09.384Z,81.72
2023-01-29T19:18:38.761Z,81.45
2023-01-29T19:21:13.137Z,80.90
2023-01-29T19:23:41.324Z,81.32
2023-01-29T19:26:10.044Z,82.28
2023-01-29T19:28:36.813Z,82.21
2023-01-29T19:31:03.666Z,83.18
2023-01-29T19:33:30.402Z,83.27
2023-01-29T19:36:00.403Z,83.05
2023-01-29T19:38:27.574Z,82.34
2023-01-29T19:40:55.447Z,82.00
2023-01-29T19:43:23.094Z,81.53
2023-01-29T19:45:51.088Z,82.43
2023-01-29T19:48:21.812Z,82.37
2023-01-29T19:51:09.721Z,83.01
2023-01-29T19:53:38.169Z,82.89
2023-01-29T19:56:07.568Z,82.87
2023-01-29T19:58:35.040Z,82.53
2023-01-29T20:01:04.811Z,82.47
2023-01-29T20:03:31.680Z,81.92
2023-01-29T20:06:03.752Z,81.90
2023-01-29T20:08:31.571Z,81.88
2023-01-29T20:10:58.205Z,82.40
2023-01-29T20:13:24.900Z,81.88
2023-01-29T20:15:52.163Z,82.12
2023-01-29T20:18:19.567Z,81.43
2023-01-29T20:20:49.153Z,80.77
2023-01-29T20:23:25.061Z,81.71
2023-01-29T20:26:02.740Z,81.43
2023-01-29T20:28:29.549Z,81.52
2023-01-29T20:30:58.060Z,81.98
2023-01-29T20:33:26.089Z,81.06
2023-01-29T20:36:00.674Z,80.59
2023-01-29T20:38:30.512Z,81.47
2023-01-29T20:41:12.607Z,80.34
2023-01-29T20:43:39.462Z,80.00
2023-01-29T20:46:06.758Z,79.57
2023-01-29T20:48:33.601Z,78.66
2023-01-29T20:51:24.668Z,78.76
2023-01-29T20:53:51.334Z,78.47
2023-01-29T20:56:18.584Z,80.15
2023-01-29T20:58:51.224Z,79.31
2023-01-29T21:01:20.393Z,78.89
2023-01-29T21:03:47.553Z,79.48
2023-01-29T21:06:14.438Z,79.82
2023-01-29T21:08:41.210Z,80.29
2023-01-29T21:11:09.436Z,80.65
2023-01-29T21:13:36.463Z,80.33
2023-01-29T21:16:03.628Z,79.79
2023-01-29T21:18:30.476Z,78.33
2023-01-29T21:20:57.074Z,79.15
2023-01-29T21:23:24.187Z,79.57
2023-01-29T21:25:50.796Z,80.24
2023-01-29T21:28:17.595Z,81.33
2023-01-29T21:30:44.540Z,80.76
2023-01-29T21:33:11.229Z,80.42
2023-01-29T21:35:38.435Z,79.91
2023-01-29T21:38:05.146Z,72.86
2023-01-29T21:40:31.761Z,67.33
2023-01-29T21:43:14.132Z,69.41
2023-01-29T21:45:41.539Z,66.39
2023-01-29T21:48:09.943Z,67.93
2023-01-29T21:50:36.651Z,68.64
2023-01-29T21:53:03.307Z,64.52
2023-01-29T21:55:30.375Z,63.35
2023-01-29T21:57:57.015Z,67.20
2023-01-29T22:00:23.685Z,63.01
2023-01-29T22:02:55.494Z,64.75
2023-01-29T22:05:22.403Z,60.62
2023-01-29T22:07:49.398Z,60.88
2023-01-29T22:10:19.769Z,60.60
2023-01-29T22:12:47.522Z,60.16
2023-01-29T22:15:15.463Z,64.32
2023-01-29T22:17:42.745Z,60.75
2023-01-29T22:20:11.806Z,62.92
2023-01-29T22:22:38.483Z,59.08
2023-01-29T22:25:05.737Z,58.51
2023-01-29T22:27:33.474Z,59.41
2023-01-29T22:30:00.316Z,59.00
2023-01-29T22:32:27.312Z,59.41
2023-01-29T22:34:54.040Z,58.83
2023-01-29T22:37:20.680Z,59.39
2023-01-29T22:39:47.320Z,57.93
2023-01-29T22:42:14.036Z,59.19
2023-01-29T22:44:43.742Z,60.64
2023-01-29T22:47:10.407Z,58.90
2023-01-29T22:49:36.968Z,57.07
2023-01-29T22:52:12.638Z,58.70
2023-01-29T22:54:41.488Z,58.62
2023-01-29T22:57:13.111Z,57.61
2023-01-29T22:59:40.254Z,57.78
2023-01-29T23:02:07.773Z,58.92
2023-01-29T23:04:34.728Z,58.63
2023-01-29T23:07:01.394Z,60.30
2023-01-29T23:09:28.076Z,58.25
2023-01-29T23:11:54.647Z,57.22
2023-01-29T23:14:21.514Z,58.33
2023-01-29T23:16:48.114Z,58.68
2023-01-29T23:19:14.697Z,58.06
2023-01-29T23:21:41.265Z,57.87
2023-01-29T23:24:08.551Z,57.28
2023-01-29T23:26:56.840Z,58.80
2023-01-29T23:29:23.544Z,59.76
2023-01-29T23:31:50.230Z,59.06
2023-01-29T23:34:17.086Z,58.62
2023-01-29T23:36:43.825Z,58.11
2023-01-29T23:39:10.803Z,57.10
2023-01-29T23:41:37.465Z,59.16
2023-01-29T23:44:04.404Z,57.57
2023-01-29T23:46:31.449Z,57.94
2023-01-29T23:48:58.223Z,59.69
2023-01-29T23:51:24.855Z,59.85
2023-01-29T23:53:51.668Z,58.83
2023-01-29T23:56:18.571Z,59.45
2023-01-29T23:58:45.980Z,58.29
